Terminal Aerodrome Forecast
Issued by NWS Goodland, KS

Home | Current Version | Previous Version | Text Only | Print | Product List | Glossary On
Versions: 1 2 3 4 5 6 7 8 9 10 11 12 13 14 15 16 17
000
FTUS43 KGLD 280156 AAA
TAFGLD
TAF AMD
KGLD 280156Z 2802/2824 36012KT P6SM BKN100
     FM280300 33006KT P6SM BKN035
     FM280400 32007KT P6SM BKN035
     FM282000 29006KT P6SM SCT050=

USA.gov is the U.S. government's official web portal to all federal, state and local government web resources and services.